createdAt,value
2017-09-20T00:00:09.614Z,90.30
2017-09-20T00:02:37.945Z,90.20
2017-09-20T00:05:05.645Z,90.20
2017-09-20T00:07:33.909Z,90.00
2017-09-20T00:10:01.399Z,90.00
2017-09-20T00:12:28.947Z,90.00
2017-09-20T00:14:57.246Z,90.00
2017-09-20T00:17:24.954Z,90.00
2017-09-20T00:19:52.444Z,90.20
2017-09-20T00:22:20.676Z,90.10
2017-09-20T00:24:48.166Z,90.10
2017-09-20T00:27:17.312Z,90.30
2017-09-20T00:29:44.796Z,90.20
2017-09-20T00:32:12.313Z,90.20
2017-09-20T00:34:39.814Z,90.30
2017-09-20T00:37:07.355Z,90.20
2017-09-20T00:39:34.837Z,90.20
2017-09-20T00:42:02.369Z,90.30
2017-09-20T00:44:29.846Z,90.30
2017-09-20T00:46:57.362Z,90.70
2017-09-20T00:49:24.846Z,90.50
2017-09-20T00:51:52.317Z,90.40
2017-09-20T00:54:19.829Z,90.50
2017-09-20T00:56:47.317Z,90.60
2017-09-20T00:59:14.868Z,90.60
2017-09-20T01:01:42.412Z,90.60
2017-09-20T01:04:09.909Z,90.70
2017-09-20T01:06:37.577Z,90.80
2017-09-20T01:09:05.062Z,90.90
2017-09-20T01:11:33.328Z,91.00
2017-09-20T01:14:01.570Z,91.10
2017-09-20T01:16:29.037Z,91.10
2017-09-20T01:18:57.357Z,91.10
2017-09-20T01:21:37.671Z,91.20
2017-09-20T01:24:05.254Z,91.20
2017-09-20T01:26:33.568Z,91.90
2017-09-20T01:29:01.025Z,91.80
2017-09-20T01:31:28.549Z,91.90
2017-09-20T01:33:58.118Z,91.40
2017-09-20T01:36:25.804Z,91.40
2017-09-20T01:38:53.292Z,91.40
2017-09-20T01:41:20.766Z,91.40
2017-09-20T01:43:48.337Z,91.40
2017-09-20T01:46:15.829Z,92.10
2017-09-20T01:48:44.101Z,91.70
2017-09-20T01:51:11.603Z,91.70
2017-09-20T01:53:39.100Z,91.70
2017-09-20T01:56:06.621Z,91.70
2017-09-20T01:58:34.115Z,91.70
2017-09-20T02:01:02.040Z,91.60
2017-09-20T02:03:29.548Z,91.50
2017-09-20T02:05:57.383Z,91.50
2017-09-20T02:08:24.909Z,91.70
2017-09-20T02:10:53.709Z,91.80
2017-09-20T02:13:21.478Z,91.80
2017-09-20T02:15:48.950Z,91.80
2017-09-20T02:18:16.465Z,91.80
2017-09-20T02:20:43.940Z,91.80
2017-09-20T02:23:12.464Z,91.60
2017-09-20T02:25:40.420Z,91.60
2017-09-20T02:28:07.890Z,91.70
2017-09-20T02:30:35.370Z,91.80
2017-09-20T02:33:02.846Z,91.80
2017-09-20T02:35:30.325Z,91.80
2017-09-20T02:37:58.712Z,91.70
2017-09-20T02:40:26.297Z,91.90
2017-09-20T02:42:53.871Z,91.60
2017-09-20T02:45:21.347Z,91.70
2017-09-20T02:47:49.183Z,91.80
2017-09-20T02:50:16.878Z,91.70
2017-09-20T02:52:44.380Z,91.70
2017-09-20T02:55:11.860Z,92.00
2017-09-20T02:57:39.465Z,91.60
2017-09-20T03:00:06.975Z,91.40
2017-09-20T03:02:34.488Z,91.40
2017-09-20T03:05:02.738Z,91.70
2017-09-20T03:07:30.222Z,91.90
2017-09-20T03:09:58.469Z,91.60
2017-09-20T03:12:25.955Z,91.60
2017-09-20T03:14:54.439Z,91.70
2017-09-20T03:17:22.686Z,91.70
2017-09-20T03:19:50.194Z,91.70
2017-09-20T03:22:17.705Z,91.80
2017-09-20T03:24:45.217Z,91.70
2017-09-20T03:27:12.705Z,91.80
2017-09-20T03:29:40.168Z,91.80
2017-09-20T03:32:07.631Z,91.80
2017-09-20T03:34:36.626Z,91.90
2017-09-20T03:37:04.129Z,91.90
2017-09-20T03:39:32.145Z,91.90
2017-09-20T03:41:59.627Z,91.90
2017-09-20T03:44:27.195Z,92.00
2017-09-20T03:46:55.470Z,92.10
2017-09-20T03:49:23.773Z,92.00
2017-09-20T03:51:51.382Z,92.00
2017-09-20T03:54:18.872Z,92.00
2017-09-20T03:56:46.488Z,91.80
2017-09-20T03:59:14.026Z,91.80
2017-09-20T04:01:41.523Z,91.70
2017-09-20T04:04:09.196Z,91.50
2017-09-20T04:06:37.551Z,91.60
2017-09-20T04:09:05.039Z,91.60
2017-09-20T04:11:33.322Z,91.70
2017-09-20T04:14:01.606Z,91.60
2017-09-20T04:16:29.109Z,91.60
2017-09-20T04:18:56.915Z,91.60
2017-09-20T04:21:25.235Z,91.50
2017-09-20T04:23:52.756Z,91.50
2017-09-20T04:26:20.994Z,91.60
2017-09-20T04:28:48.486Z,91.60
2017-09-20T04:31:16.724Z,91.60
2017-09-20T04:33:44.375Z,91.60
2017-09-20T04:36:11.878Z,91.60
2017-09-20T04:38:40.111Z,91.70
2017-09-20T04:41:07.613Z,91.70
2017-09-20T04:43:35.845Z,91.60
2017-09-20T04:46:03.616Z,91.60
2017-09-20T04:48:31.099Z,91.60
2017-09-20T04:50:58.589Z,91.60
2017-09-20T04:53:26.180Z,91.70
2017-09-20T04:55:53.638Z,91.70
2017-09-20T04:58:21.350Z,91.60
2017-09-20T05:00:49.737Z,91.60
2017-09-20T05:03:17.540Z,91.60
2017-09-20T05:05:45.007Z,91.50
2017-09-20T05:08:12.520Z,91.50
2017-09-20T05:10:40.942Z,91.40
2017-09-20T05:13:08.462Z,91.40
2017-09-20T05:15:35.962Z,91.30
2017-09-20T05:18:03.519Z,91.40
2017-09-20T05:20:31.117Z,91.40
2017-09-20T05:22:59.647Z,91.40
2017-09-20T05:25:27.122Z,91.30
2017-09-20T05:27:54.659Z,91.40
2017-09-20T05:30:22.145Z,91.40
2017-09-20T05:32:49.653Z,91.30
2017-09-20T05:35:17.430Z,91.30
2017-09-20T05:37:44.914Z,91.50
2017-09-20T05:40:12.648Z,91.60
2017-09-20T05:42:40.161Z,91.70
2017-09-20T05:45:08.170Z,92.00
2017-09-20T05:47:35.919Z,91.70
2017-09-20T05:50:04.783Z,91.60
2017-09-20T05:52:33.030Z,91.60
2017-09-20T05:55:00.507Z,91.60
2017-09-20T05:57:28.007Z,91.50
2017-09-20T05:59:55.538Z,91.40
2017-09-20T06:02:23.054Z,91.30
2017-09-20T06:04:50.561Z,91.30
2017-09-20T06:07:18.078Z,91.20
2017-09-20T06:09:45.551Z,91.20
2017-09-20T06:12:13.039Z,91.10
2017-09-20T06:14:41.300Z,91.20
2017-09-20T06:17:09.646Z,91.30
2017-09-20T06:19:37.163Z,90.90
2017-09-20T06:22:05.477Z,90.90
2017-09-20T06:24:33.169Z,90.90
2017-09-20T06:27:01.447Z,90.70
2017-09-20T06:29:28.922Z,90.70
2017-09-20T06:31:57.197Z,90.70
2017-09-20T06:34:25.520Z,90.60
2017-09-20T06:36:53.001Z,90.60
2017-09-20T06:39:20.502Z,90.50
2017-09-20T06:41:48.714Z,90.50
2017-09-20T06:44:16.199Z,90.60
2017-09-20T06:46:45.200Z,90.70
2017-09-20T06:49:13.518Z,90.60
2017-09-20T06:51:41.046Z,90.60
2017-09-20T06:54:09.298Z,90.40
2017-09-20T06:56:36.923Z,90.30
2017-09-20T06:59:04.402Z,90.30
2017-09-20T07:01:31.965Z,90.20
2017-09-20T07:03:59.469Z,90.20
2017-09-20T07:06:27.699Z,89.90
2017-09-20T07:08:55.226Z,89.80
2017-09-20T07:11:22.734Z,90.00
2017-09-20T07:13:50.283Z,89.80
2017-09-20T07:16:17.748Z,90.00
2017-09-20T07:18:46.062Z,89.40
2017-09-20T07:21:14.300Z,89.40
2017-09-20T07:23:42.426Z,89.40
2017-09-20T07:26:10.719Z,89.20
2017-09-20T07:28:38.233Z,88.70
2017-09-20T07:31:06.527Z,88.80
2017-09-20T07:33:34.069Z,88.90
2017-09-20T07:36:02.345Z,88.40
2017-09-20T07:38:30.828Z,89.10
2017-09-20T07:40:59.515Z,88.50
2017-09-20T07:43:27.787Z,88.20
2017-09-20T07:45:56.067Z,88.50
2017-09-20T07:48:24.333Z,88.10
2017-09-20T07:50:52.667Z,88.40
2017-09-20T07:53:20.143Z,88.50
2017-09-20T07:55:47.643Z,88.30
2017-09-20T07:58:15.171Z,88.10
2017-09-20T08:00:42.648Z,88.20
2017-09-20T08:03:11.128Z,87.70
2017-09-20T08:05:39.415Z,86.20
2017-09-20T08:08:07.653Z,85.40
2017-09-20T08:10:35.147Z,85.40
2017-09-20T08:13:03.527Z,82.60
2017-09-20T08:15:31.256Z,79.20
2017-09-20T08:17:58.735Z,77.60
2017-09-20T08:20:27.027Z,77.80
2017-09-20T08:22:54.600Z,77.80
2017-09-20T08:25:22.109Z,79.70
2017-09-20T08:27:49.619Z,80.90
2017-09-20T08:30:17.077Z,81.40
2017-09-20T08:32:44.942Z,81.20
2017-09-20T08:35:12.501Z,81.40
2017-09-20T08:37:40.045Z,80.20
2017-09-20T08:40:08.288Z,79.10
2017-09-20T08:42:37.319Z,79.20
2017-09-20T08:45:04.818Z,79.20
2017-09-20T08:47:32.360Z,78.20
2017-09-20T08:50:00.163Z,76.70
2017-09-20T08:52:28.435Z,76.50
2017-09-20T08:54:56.630Z,76.50
2017-09-20T08:57:24.894Z,75.20
2017-09-20T08:59:53.171Z,75.80
2017-09-20T09:02:20.739Z,75.80
2017-09-20T09:04:49.611Z,75.50
2017-09-20T09:07:17.127Z,75.50
2017-09-20T09:09:44.626Z,75.00
2017-09-20T09:12:12.092Z,74.50
2017-09-20T09:14:40.566Z,73.20
2017-09-20T09:17:08.588Z,72.60
2017-09-20T09:19:36.083Z,72.10
2017-09-20T09:22:03.694Z,73.70
2017-09-20T09:24:31.174Z,74.20
2017-09-20T09:26:58.777Z,74.30
2017-09-20T09:29:27.045Z,75.30
2017-09-20T09:31:54.509Z,75.30
2017-09-20T09:34:22.042Z,75.70
2017-09-20T09:36:49.514Z,76.30
2017-09-20T09:39:17.173Z,76.90
2017-09-20T09:41:44.653Z,77.30
2017-09-20T09:44:12.924Z,75.70
2017-09-20T09:46:40.496Z,75.70
2017-09-20T09:49:08.758Z,74.50
2017-09-20T09:51:36.439Z,74.50
2017-09-20T09:54:04.803Z,74.20
2017-09-20T09:56:33.041Z,74.30
2017-09-20T09:59:00.556Z,74.20
2017-09-20T10:01:28.030Z,73.40
2017-09-20T10:03:55.808Z,72.80
2017-09-20T10:06:23.273Z,71.30
2017-09-20T10:08:50.765Z,71.40
2017-09-20T10:11:19.047Z,71.80
2017-09-20T10:13:47.342Z,70.80
2017-09-20T10:16:15.790Z,70.30
2017-09-20T10:18:43.315Z,70.30
2017-09-20T10:21:10.779Z,70.20
2017-09-20T10:23:38.259Z,71.80
2017-09-20T10:26:05.736Z,70.20
2017-09-20T10:28:33.988Z,69.60
2017-09-20T10:31:01.462Z,69.60
2017-09-20T10:33:28.967Z,69.80
2017-09-20T10:35:56.456Z,67.60
2017-09-20T10:38:23.925Z,64.10
2017-09-20T10:40:52.437Z,63.20
2017-09-20T10:43:19.947Z,64.00
2017-09-20T10:45:47.417Z,62.10
2017-09-20T10:48:14.886Z,62.60
2017-09-20T10:50:43.977Z,62.50
2017-09-20T10:53:11.646Z,62.40
2017-09-20T10:55:39.258Z,63.70
2017-09-20T10:58:06.769Z,63.50
2017-09-20T11:00:34.279Z,63.00
2017-09-20T11:03:01.778Z,62.60
2017-09-20T11:05:29.342Z,62.20
2017-09-20T11:07:57.578Z,61.40
2017-09-20T11:10:25.067Z,61.20
2017-09-20T11:12:52.542Z,61.60
2017-09-20T11:15:20.775Z,59.80
2017-09-20T11:17:48.283Z,59.80
2017-09-20T11:20:15.848Z,61.20
2017-09-20T11:22:43.305Z,58.70
2017-09-20T11:25:10.807Z,58.90
2017-09-20T11:27:38.327Z,59.10
2017-09-20T11:30:06.092Z,60.80
2017-09-20T11:32:33.569Z,59.20
2017-09-20T11:35:01.873Z,59.60
2017-09-20T11:37:29.385Z,59.50
2017-09-20T11:39:57.770Z,58.90
2017-09-20T11:42:25.310Z,58.30
2017-09-20T11:44:53.716Z,58.50
2017-09-20T11:47:21.547Z,58.50
2017-09-20T11:49:49.797Z,55.50
2017-09-20T11:52:17.275Z,55.50
2017-09-20T11:54:45.546Z,56.30
2017-09-20T11:57:13.802Z,57.00
2017-09-20T11:59:41.268Z,57.00
2017-09-20T12:02:08.921Z,56.80
2017-09-20T12:04:36.442Z,57.60
2017-09-20T12:07:04.176Z,59.00
2017-09-20T12:09:32.422Z,58.60
2017-09-20T12:11:59.871Z,58.60
2017-09-20T12:14:27.367Z,58.50
2017-09-20T12:16:55.748Z,57.70
2017-09-20T12:19:23.572Z,57.70
2017-09-20T12:21:51.042Z,57.80
2017-09-20T12:24:19.306Z,56.20
2017-09-20T12:26:46.819Z,56.40
2017-09-20T12:29:14.301Z,55.10
2017-09-20T12:31:41.818Z,54.90
2017-09-20T12:34:09.672Z,55.80
2017-09-20T12:36:37.206Z,54.70
2017-09-20T12:39:04.698Z,55.20
2017-09-20T12:41:33.014Z,56.90
2017-09-20T12:44:00.508Z,56.80
2017-09-20T12:46:27.998Z,57.10
2017-09-20T12:48:55.523Z,56.50
2017-09-20T12:51:23.887Z,56.20
2017-09-20T12:53:51.386Z,56.50
2017-09-20T12:56:19.630Z,57.50
2017-09-20T12:58:47.130Z,57.50
2017-09-20T13:01:14.716Z,57.70
2017-09-20T13:03:42.235Z,57.70
2017-09-20T13:06:10.576Z,57.70
2017-09-20T13:08:38.051Z,57.70
2017-09-20T13:11:05.500Z,58.20
2017-09-20T13:13:33.023Z,57.90
2017-09-20T13:16:00.535Z,58.70
2017-09-20T13:18:29.223Z,58.30
2017-09-20T13:20:57.468Z,57.70
2017-09-20T13:23:24.952Z,57.60
2017-09-20T13:25:53.190Z,57.20
2017-09-20T13:28:20.692Z,56.70
2017-09-20T13:30:49.021Z,56.50
2017-09-20T13:33:16.579Z,56.50
2017-09-20T13:35:44.768Z,56.50
2017-09-20T13:38:12.248Z,57.30
2017-09-20T13:40:39.755Z,57.50
2017-09-20T13:43:07.372Z,56.70
2017-09-20T13:45:35.635Z,55.20
2017-09-20T13:48:03.880Z,55.20
2017-09-20T13:50:31.348Z,55.20
2017-09-20T13:52:58.829Z,55.30
2017-09-20T13:55:26.353Z,53.30
2017-09-20T13:57:53.841Z,52.70
2017-09-20T14:00:21.331Z,53.10
2017-09-20T14:02:48.868Z,53.20
2017-09-20T14:05:16.413Z,54.30
2017-09-20T14:07:43.899Z,54.90
2017-09-20T14:10:12.140Z,54.70
2017-09-20T14:12:39.601Z,54.80
2017-09-20T14:15:07.074Z,54.80
2017-09-20T14:17:35.313Z,55.90
2017-09-20T14:20:03.025Z,55.90
2017-09-20T14:22:31.401Z,54.40
2017-09-20T14:24:59.679Z,55.00
2017-09-20T14:27:27.975Z,55.70
2017-09-20T14:29:55.456Z,55.70
2017-09-20T14:32:22.934Z,55.00
2017-09-20T14:34:50.839Z,55.90
2017-09-20T14:37:19.109Z,57.50
2017-09-20T14:39:46.601Z,57.20
2017-09-20T14:42:14.442Z,57.40
2017-09-20T14:44:41.993Z,57.10
2017-09-20T14:47:10.245Z,57.90
2017-09-20T14:49:38.019Z,57.90
2017-09-20T14:52:06.293Z,58.20
2017-09-20T14:54:34.374Z,58.20
2017-09-20T14:57:02.790Z,58.90
2017-09-20T14:59:30.340Z,58.90
2017-09-20T15:01:57.917Z,57.70
2017-09-20T15:04:44.659Z,57.10
2017-09-20T15:07:12.341Z,57.10
2017-09-20T15:09:40.805Z,55.70
2017-09-20T15:12:08.520Z,55.70
2017-09-20T15:14:36.040Z,56.90
2017-09-20T15:17:04.352Z,56.50
2017-09-20T15:19:32.003Z,55.60
2017-09-20T15:22:00.301Z,58.00
2017-09-20T15:24:27.769Z,58.00
2017-09-20T15:26:56.930Z,58.30
2017-09-20T15:29:24.450Z,58.30
2017-09-20T15:31:53.089Z,58.80
2017-09-20T15:34:20.845Z,59.40
2017-09-20T15:36:48.356Z,60.40
2017-09-20T15:39:16.508Z,60.40
2017-09-20T15:41:44.350Z,60.50
2017-09-20T15:44:11.869Z,60.60
2017-09-20T15:46:39.441Z,60.10
2017-09-20T15:49:08.025Z,60.70
2017-09-20T15:51:36.283Z,59.60
2017-09-20T15:54:03.786Z,59.60
2017-09-20T15:56:31.329Z,58.80
2017-09-20T15:58:58.841Z,59.00
2017-09-20T16:01:26.329Z,58.90
2017-09-20T16:03:54.604Z,59.10
2017-09-20T16:06:22.865Z,59.50
2017-09-20T16:08:50.373Z,59.50
2017-09-20T16:11:17.864Z,60.10
2017-09-20T16:13:45.512Z,61.00
2017-09-20T16:16:12.988Z,60.60
2017-09-20T16:18:52.891Z,60.90
2017-09-20T16:21:20.368Z,60.90
2017-09-20T16:23:47.867Z,61.60
2017-09-20T16:26:15.701Z,61.70
2017-09-20T16:28:43.352Z,63.10
2017-09-20T16:31:11.294Z,63.50
2017-09-20T16:33:38.785Z,64.10
2017-09-20T16:36:06.259Z,64.30
2017-09-20T16:38:33.947Z,65.40
2017-09-20T16:41:01.459Z,65.50
2017-09-20T16:43:29.219Z,66.00
2017-09-20T16:45:56.790Z,66.30
2017-09-20T16:48:24.297Z,66.00
2017-09-20T16:50:52.576Z,66.50
2017-09-20T16:53:20.802Z,67.20
2017-09-20T16:55:48.449Z,67.20
2017-09-20T16:58:18.198Z,68.20
2017-09-20T17:00:46.473Z,68.70
2017-09-20T17:03:13.991Z,69.30
2017-09-20T17:05:41.469Z,70.30
2017-09-20T17:08:09.268Z,70.40
2017-09-20T17:10:37.590Z,70.90
2017-09-20T17:13:05.076Z,70.90
2017-09-20T17:15:32.622Z,71.40
2017-09-20T17:18:00.937Z,71.80
2017-09-20T17:20:29.464Z,72.60
2017-09-20T17:22:57.040Z,72.40
2017-09-20T17:25:24.534Z,72.70
2017-09-20T17:27:52.049Z,73.10
2017-09-20T17:30:20.365Z,73.50
2017-09-20T17:32:48.038Z,73.80
2017-09-20T17:35:17.018Z,74.30
2017-09-20T17:37:44.696Z,74.30
2017-09-20T17:40:12.206Z,74.80
2017-09-20T17:42:39.849Z,75.40
2017-09-20T17:45:07.788Z,75.80
2017-09-20T17:47:36.221Z,77.30
2017-09-20T17:50:03.767Z,78.00
2017-09-20T17:52:31.356Z,77.80
2017-09-20T17:54:59.418Z,78.90
2017-09-20T17:57:27.007Z,78.80
2017-09-20T17:59:55.071Z,79.30
2017-09-20T18:02:22.541Z,79.90
2017-09-20T18:04:50.856Z,81.20
2017-09-20T18:07:18.410Z,81.10
2017-09-20T18:09:46.970Z,82.00
2017-09-20T18:12:14.527Z,82.50
2017-09-20T18:14:42.063Z,83.00
2017-09-20T18:17:09.579Z,83.40
2017-09-20T18:19:37.094Z,83.60
2017-09-20T18:22:05.578Z,84.40
2017-09-20T18:24:33.849Z,84.70
2017-09-20T18:27:01.501Z,84.70
2017-09-20T18:29:29.762Z,85.10
2017-09-20T18:31:57.248Z,85.10
2017-09-20T18:34:25.897Z,85.50
2017-09-20T18:36:53.350Z,85.50
2017-09-20T18:39:20.825Z,85.90
2017-09-20T18:41:48.335Z,85.80
2017-09-20T18:44:15.800Z,85.60
2017-09-20T18:46:43.278Z,86.10
2017-09-20T18:49:10.753Z,86.40
2017-09-20T18:51:38.260Z,86.90
2017-09-20T18:54:05.749Z,87.30
2017-09-20T18:56:33.243Z,87.20
2017-09-20T18:59:00.798Z,87.10
2017-09-20T19:01:29.066Z,88.50
2017-09-20T19:03:56.631Z,87.90
2017-09-20T19:06:24.165Z,88.00
2017-09-20T19:08:51.664Z,87.70
2017-09-20T19:11:20.343Z,87.80
2017-09-20T19:13:47.835Z,87.70
2017-09-20T19:16:15.364Z,87.90
2017-09-20T19:18:42.911Z,88.20
2017-09-20T19:21:11.183Z,88.70
2017-09-20T19:23:39.812Z,88.70
2017-09-20T19:26:07.428Z,88.70
2017-09-20T19:28:34.967Z,88.40
2017-09-20T19:31:02.459Z,88.50
2017-09-20T19:33:29.991Z,88.50
2017-09-20T19:35:58.048Z,89.00
2017-09-20T19:38:25.570Z,88.70
2017-09-20T19:40:53.219Z,88.60
2017-09-20T19:43:21.548Z,88.70
2017-09-20T19:45:49.006Z,88.60
2017-09-20T19:48:16.514Z,88.90
2017-09-20T19:50:43.991Z,88.90
2017-09-20T19:53:11.471Z,89.00
2017-09-20T19:55:39.115Z,89.00
2017-09-20T19:58:06.625Z,89.10
2017-09-20T20:00:37.756Z,88.70
2017-09-20T20:03:06.204Z,89.30
2017-09-20T20:05:33.856Z,88.40
2017-09-20T20:08:01.390Z,88.30
2017-09-20T20:10:28.913Z,88.60
2017-09-20T20:12:57.453Z,89.00
2017-09-20T20:15:24.979Z,89.00
2017-09-20T20:17:52.538Z,88.90
2017-09-20T20:20:20.981Z,89.10
2017-09-20T20:22:48.473Z,89.10
2017-09-20T20:25:17.272Z,88.60
2017-09-20T20:27:45.566Z,88.40
2017-09-20T20:30:13.034Z,88.40
2017-09-20T20:32:40.545Z,88.30
2017-09-20T20:35:08.815Z,87.90
2017-09-20T20:37:36.495Z,87.90
2017-09-20T20:40:06.105Z,88.40
2017-09-20T20:42:33.581Z,88.40
2017-09-20T20:45:01.097Z,88.40
2017-09-20T20:47:28.558Z,88.60
2017-09-20T20:49:58.009Z,88.40
2017-09-20T20:52:25.615Z,88.40
2017-09-20T20:54:53.124Z,88.20
2017-09-20T20:57:20.605Z,88.00
2017-09-20T20:59:48.098Z,87.80
2017-09-20T21:02:15.953Z,87.50
2017-09-20T21:04:43.424Z,87.90
2017-09-20T21:07:10.918Z,88.10
2017-09-20T21:09:40.316Z,87.60
2017-09-20T21:12:08.010Z,87.40
2017-09-20T21:14:35.954Z,87.10
2017-09-20T21:17:04.442Z,87.50
2017-09-20T21:19:31.904Z,86.60
2017-09-20T21:21:59.378Z,86.70
2017-09-20T21:24:26.914Z,86.60
2017-09-20T21:26:54.621Z,87.20
2017-09-20T21:29:22.367Z,87.00
2017-09-20T21:31:50.002Z,86.90
2017-09-20T21:34:17.513Z,87.00
2017-09-20T21:36:45.752Z,87.30
2017-09-20T21:39:13.461Z,87.30
2017-09-20T21:41:41.689Z,87.10
2017-09-20T21:44:09.189Z,87.00
2017-09-20T21:46:37.437Z,87.00
2017-09-20T21:49:04.896Z,87.00
2017-09-20T21:51:32.467Z,87.40
2017-09-20T21:53:59.976Z,87.50
2017-09-20T21:56:27.535Z,87.40
2017-09-20T21:58:55.035Z,87.30
2017-09-20T22:01:22.504Z,87.20
2017-09-20T22:03:50.761Z,85.90
2017-09-20T22:06:18.251Z,85.80
2017-09-20T22:08:46.590Z,86.00
2017-09-20T22:11:14.188Z,86.00
2017-09-20T22:13:42.418Z,86.30
2017-09-20T22:16:21.727Z,86.30
2017-09-20T22:19:01.138Z,86.80
2017-09-20T22:21:41.587Z,86.80
2017-09-20T22:24:21.781Z,86.60
2017-09-20T22:26:48.844Z,86.60
2017-09-20T22:29:16.329Z,86.70
2017-09-20T22:31:43.858Z,86.90
2017-09-20T22:34:11.361Z,86.70
2017-09-20T22:36:39.809Z,86.70
2017-09-20T22:39:07.526Z,86.70
2017-09-20T22:41:35.758Z,87.10
2017-09-20T22:44:03.249Z,87.00
2017-09-20T22:46:31.550Z,87.10
2017-09-20T22:48:59.132Z,86.50
2017-09-20T22:51:26.662Z,86.50
2017-09-20T22:53:54.187Z,86.50
2017-09-20T22:56:21.638Z,86.70
2017-09-20T22:58:50.211Z,86.70
2017-09-20T23:01:17.680Z,86.70
2017-09-20T23:03:45.364Z,86.10
2017-09-20T23:06:13.638Z,86.80
2017-09-20T23:08:41.892Z,86.90
2017-09-20T23:11:09.489Z,86.90
2017-09-20T23:13:36.937Z,87.40
2017-09-20T23:16:04.799Z,87.40
2017-09-20T23:18:33.033Z,87.50
2017-09-20T23:21:00.544Z,87.50
2017-09-20T23:23:28.050Z,87.70
2017-09-20T23:25:55.521Z,87.80
2017-09-20T23:28:23.185Z,87.90
2017-09-20T23:30:50.678Z,88.00
2017-09-20T23:33:18.130Z,88.40
2017-09-20T23:35:45.645Z,88.60
2017-09-20T23:38:13.138Z,88.60
2017-09-20T23:40:41.447Z,89.00
2017-09-20T23:43:08.946Z,89.00
2017-09-20T23:45:36.414Z,89.20
2017-09-20T23:48:04.715Z,89.30
2017-09-20T23:50:32.725Z,89.10
2017-09-20T23:53:00.648Z,88.90
2017-09-20T23:55:28.177Z,89.20
2017-09-20T23:57:55.692Z,89.30
